Time;durP1;ratioP1;P1;durP2;ratioP2;P2;SDS_P1;SDS_P2;PMS_P1;PMS_P2;Temp;Humidity;BMP_temperature;BMP_pressure;BME280_temperature;BME280_humidity;BME280_pressure;Samples;Min_cycle;Max_cycle;Signal;HPM_P1;HPM_P2
2022/05/24 00:02:06;;;;;;;8.50;4.40;;;13.60;99.90;;;;;;5074555;28;20699;-67
2022/05/24 00:04:32;;;;;;;8.53;4.50;;;13.50;99.90;;;;;;5074585;28;20230;-67
2022/05/24 00:06:58;;;;;;;8.23;4.90;;;13.50;99.90;;;;;;5074741;28;20643;-67
2022/05/24 00:09:25;;;;;;;10.10;4.10;;;13.50;99.90;;;;;;5074582;28;20574;-68
2022/05/24 00:11:51;;;;;;;10.70;4.17;;;13.50;99.90;;;;;;5074342;28;20168;-68
2022/05/24 00:15:19;;;;;;;12.30;4.37;;;13.40;99.90;;;;;;5074459;28;20214;-67
2022/05/24 00:17:03;;;;;;;10.90;4.27;;;13.30;99.90;;;;;;5074199;28;20168;-67
2022/05/24 00:19:28;;;;;;;9.47;3.90;;;13.30;99.90;;;;;;5074550;28;20237;-66
2022/05/24 00:21:54;;;;;;;6.30;4.13;;;13.20;99.90;;;;;;5074400;28;20632;-68
2022/05/24 00:24:19;;;;;;;11.10;3.93;;;13.20;99.90;;;;;;5074221;28;20168;-68
2022/05/24 00:26:46;;;;;;;7.97;3.40;;;13.20;99.90;;;;;;5073942;28;20160;-67
2022/05/24 00:29:12;;;;;;;8.07;3.47;;;13.20;99.90;;;;;;5074095;28;20283;-66
2022/05/24 00:31:37;;;;;;;9.77;3.57;;;13.20;99.90;;;;;;5073935;28;20251;-67
2022/05/24 00:34:03;;;;;;;10.10;3.33;;;13.20;99.90;;;;;;5074078;28;20165;-67
2022/05/24 00:36:28;;;;;;;5.73;3.33;;;13.20;99.10;;;;;;5073882;28;20822;-66
2022/05/24 00:38:54;;;;;;;4.47;3.13;;;13.20;98.80;;;;;;5073852;28;20204;-67
2022/05/24 00:41:28;;;;;;;7.23;3.60;;;13.20;97.00;;;;;;5073503;28;20619;-66
2022/05/24 00:44:01;;;;;;;9.47;3.40;;;13.20;97.10;;;;;;5073739;28;20219;-67
2022/05/24 00:46:48;;;;;;;11.07;3.60;;;13.30;96.70;;;;;;5073791;28;20259;-66
2022/05/24 00:49:20;;;;;;;8.33;3.30;;;13.20;94.10;;;;;;5073869;28;20180;-66
2022/05/24 00:51:54;;;;;;;6.53;3.00;;;13.20;93.40;;;;;;5073759;28;20708;-66
2022/05/24 00:54:20;;;;;;;8.67;3.40;;;13.20;93.90;;;;;;5073255;28;20160;-66
2022/05/24 00:57:19;;;;;;;7.03;3.13;;;13.10;93.20;;;;;;5073456;28;20649;-67
2022/05/24 01:00:16;;;;;;;7.83;3.70;;;13.10;92.50;;;;;;5073632;28;20172;-66
2022/05/24 01:02:43;;;;;;;7.03;3.17;;;13.00;92.80;;;;;;5073305;28;20312;-67
2022/05/24 01:05:18;;;;;;;7.53;2.90;;;13.00;94.20;;;;;;5073709;28;20188;-67
2022/05/24 01:07:44;;;;;;;10.17;2.80;;;13.00;91.00;;;;;;5073737;28;20168;-67
2022/05/24 01:10:17;;;;;;;9.43;3.37;;;13.00;90.40;;;;;;5073304;28;20217;-66
2022/05/24 01:13:08;;;;;;;6.70;3.00;;;13.00;90.70;;;;;;5073634;28;20168;-67
2022/05/24 01:15:35;;;;;;;10.57;2.90;;;13.00;91.50;;;;;;5073696;28;20172;-66
2022/05/24 01:18:01;;;;;;;6.03;2.53;;;13.00;90.90;;;;;;5073530;28;20208;-65
2022/05/24 01:20:27;;;;;;;8.60;2.97;;;13.00;90.00;;;;;;5073403;28;20164;-67
2022/05/24 01:23:22;;;;;;;7.93;2.80;;;12.90;88.80;;;;;;5073094;28;20172;-68
2022/05/24 01:26:10;;;;;;;10.00;2.87;;;13.00;90.20;;;;;;5073171;28;20259;-66
2022/05/24 01:28:39;;;;;;;5.77;2.70;;;13.00;86.50;;;;;;5071967;28;20247;-67
2022/05/24 01:31:05;;;;;;;8.63;2.83;;;12.90;89.60;;;;;;5073287;28;20176;-67
2022/05/24 01:36:18;;;;;;;8.63;3.17;;;12.90;86.70;;;;;;5073343;28;20556;-67
2022/05/24 01:38:48;;;;;;;10.70;2.93;;;12.90;88.00;;;;;;5072747;28;20204;-66
2022/05/24 01:41:22;;;;;;;5.33;3.00;;;12.90;89.60;;;;;;5071934;28;20176;-66
2022/05/24 01:43:50;;;;;;;8.40;2.67;;;12.90;88.60;;;;;;5073499;28;20188;-66
2022/05/24 01:46:19;;;;;;;8.17;2.70;;;12.80;90.50;;;;;;5073213;28;20164;-67
2022/05/24 01:48:52;;;;;;;6.07;2.67;;;12.90;90.10;;;;;;5073490;28;20214;-66
2022/05/24 01:51:23;;;;;;;6.37;3.07;;;12.90;90.50;;;;;;5077310;28;20173;-67
2022/05/24 01:53:53;;;;;;;8.57;2.90;;;12.80;91.80;;;;;;5077051;28;20172;-67
2022/05/24 01:56:31;;;;;;;8.13;3.27;;;12.80;93.10;;;;;;5077300;28;20297;-66
2022/05/24 01:59:01;;;;;;;14.43;3.00;;;12.80;92.30;;;;;;5077022;28;20204;-66
2022/05/24 02:01:37;;;;;;;9.77;2.90;;;12.80;93.60;;;;;;5076909;28;20705;-66
2022/05/24 02:04:04;;;;;;;7.73;2.63;;;12.80;94.20;;;;;;5077056;28;20219;-67
2022/05/24 02:06:30;;;;;;;7.03;2.33;;;12.70;94.70;;;;;;5075518;28;20169;-65
2022/05/24 02:08:56;;;;;;;8.83;2.70;;;12.80;96.80;;;;;;5077065;28;20573;-67
2022/05/24 02:11:26;;;;;;;8.73;3.10;;;12.80;96.20;;;;;;5076837;28;20165;-67
2022/05/24 02:14:02;;;;;;;5.63;2.77;;;12.70;95.90;;;;;;5076825;28;20199;-66
2022/05/24 02:16:33;;;;;;;6.27;2.30;;;12.80;98.70;;;;;;5076821;28;20172;-65
2022/05/24 02:18:59;;;;;;;7.30;2.40;;;12.80;97.80;;;;;;5076743;28;20211;-66
2022/05/24 02:21:24;;;;;;;7.10;2.63;;;12.90;94.90;;;;;;5076387;28;20251;-66
2022/05/24 02:23:51;;;;;;;8.00;2.90;;;12.90;93.20;;;;;;5076578;28;20252;-66
2022/05/24 02:26:20;;;;;;;7.07;2.63;;;13.00;93.40;;;;;;5075336;28;20187;-66
2022/05/24 02:28:49;;;;;;;6.20;2.20;;;13.10;90.40;;;;;;5076533;28;20231;-67
2022/05/24 02:31:20;;;;;;;6.60;2.30;;;13.10;87.70;;;;;;5076456;28;20172;-65
2022/05/24 02:33:46;;;;;;;8.33;2.57;;;13.10;81.70;;;;;;5076440;28;20180;-66
2022/05/24 02:36:13;;;;;;;8.73;2.30;;;13.10;85.00;;;;;;5076163;28;20172;-66
2022/05/24 02:38:39;;;;;;;4.57;2.10;;;13.10;85.00;;;;;;5076149;28;20269;-67
2022/05/24 02:43:49;;;;;;;11.17;2.50;;;13.20;83.50;;;;;;5076431;28;20179;-66
2022/05/24 02:46:18;;;;;;;7.70;2.47;;;13.10;81.60;;;;;;5076355;28;20173;-66
2022/05/24 02:48:44;;;;;;;6.93;2.57;;;13.10;82.20;;;;;;5076124;28;20644;-66
2022/05/24 02:51:11;;;;;;;8.80;2.57;;;13.10;85.80;;;;;;5075606;28;20180;-67
2022/05/24 02:53:39;;;;;;;7.17;2.27;;;13.10;88.20;;;;;;5076092;28;20221;-68
2022/05/24 02:56:05;;;;;;;7.70;2.40;;;13.20;82.50;;;;;;5076038;28;20169;-66
2022/05/24 02:58:31;;;;;;;7.87;2.17;;;13.10;80.30;;;;;;5075796;28;20340;-67
2022/05/24 03:00:57;;;;;;;8.30;2.37;;;13.10;83.10;;;;;;5075489;28;20220;-66
2022/05/24 03:03:23;;;;;;;5.33;2.33;;;13.00;85.90;;;;;;5075723;28;20340;-66
2022/05/24 03:05:48;;;;;;;8.77;2.10;;;12.90;92.20;;;;;;5075615;28;20502;-66
2022/05/24 03:10:59;;;;;;;6.00;2.07;;;13.00;92.20;;;;;;5075785;28;20210;-66
2022/05/24 03:16:13;;;;;;;7.40;2.27;;;12.90;91.70;;;;;;5064250;28;20660;-67
2022/05/24 03:18:40;;;;;;;6.93;2.63;;;12.80;92.70;;;;;;5075143;28;20565;-67
2022/05/24 03:21:06;;;;;;;9.40;2.33;;;12.70;94.20;;;;;;5074989;28;20537;-67
2022/05/24 03:23:32;;;;;;;6.80;2.90;;;12.70;93.20;;;;;;5075408;28;20180;-66
2022/05/24 03:25:57;;;;;;;7.80;2.47;;;12.80;92.90;;;;;;5075339;28;20195;-67
2022/05/24 03:28:23;;;;;;;12.30;2.83;;;12.80;92.70;;;;;;5075195;28;20177;-66
2022/05/24 03:30:49;;;;;;;6.10;2.50;;;12.80;91.60;;;;;;5075081;28;20175;-66
2022/05/24 03:33:15;;;;;;;6.83;2.83;;;12.80;87.20;;;;;;5075195;28;20180;-66
2022/05/24 03:35:41;;;;;;;6.47;2.60;;;12.80;84.40;;;;;;5074753;28;20732;-65
2022/05/24 03:38:07;;;;;;;7.43;2.80;;;12.80;85.60;;;;;;5075106;28;20215;-67
2022/05/24 03:40:33;;;;;;;9.90;2.60;;;12.80;87.10;;;;;;5074879;28;20172;-66
2022/05/24 03:43:01;;;;;;;9.57;2.70;;;12.80;81.90;;;;;;5074687;28;20183;-66
2022/05/24 03:45:28;;;;;;;10.40;2.83;;;12.80;82.00;;;;;;5074881;28;20640;-66
2022/05/24 03:47:54;;;;;;;6.83;2.80;;;12.70;87.40;;;;;;5074522;28;20234;-66
2022/05/24 03:50:21;;;;;;;5.30;2.40;;;12.80;90.10;;;;;;5074864;28;20568;-67
2022/05/24 03:52:46;;;;;;;7.03;2.13;;;12.80;87.30;;;;;;5074650;28;20628;-66
2022/05/24 03:55:13;;;;;;;4.43;2.40;;;12.80;85.60;;;;;;5074233;28;20161;-67
2022/05/24 04:00:24;;;;;;;8.37;2.10;;;12.80;86.30;;;;;;5074402;28;20533;-67
2022/05/24 04:02:49;;;;;;;6.43;2.30;;;12.80;83.20;;;;;;5074140;28;20188;-66
2022/05/24 04:05:15;;;;;;;10.87;2.30;;;12.80;84.30;;;;;;5074502;28;20189;-67
2022/05/24 04:07:41;;;;;;;5.30;2.50;;;12.70;87.10;;;;;;5073351;28;20179;-66
2022/05/24 04:10:10;;;;;;;6.73;2.60;;;12.70;90.20;;;;;;5073716;28;20207;-66
2022/05/24 04:12:36;;;;;;;9.30;2.93;;;12.70;90.30;;;;;;5073442;28;20192;-66
2022/05/24 04:15:02;;;;;;;8.33;2.70;;;12.70;91.10;;;;;;5074160;28;20176;-65
2022/05/24 04:17:27;;;;;;;9.57;2.90;;;12.60;90.30;;;;;;5073517;28;20207;-67
2022/05/24 04:19:53;;;;;;;6.07;2.67;;;12.60;93.00;;;;;;5072868;28;20177;-67
2022/05/24 04:22:19;;;;;;;10.07;2.73;;;12.60;91.80;;;;;;5073767;28;20738;-67
2022/05/24 04:24:44;;;;;;;5.67;2.30;;;12.60;92.00;;;;;;5073958;28;20184;-67
2022/05/24 04:27:10;;;;;;;11.33;2.97;;;12.60;92.40;;;;;;5073543;28;20224;-66
2022/05/24 04:29:41;;;;;;;7.97;2.83;;;12.60;93.80;;;;;;5074034;28;20176;-66
2022/05/24 04:32:08;;;;;;;5.37;2.40;;;12.60;92.30;;;;;;5073515;28;20167;-66
2022/05/24 04:34:34;;;;;;;7.83;2.63;;;12.60;91.50;;;;;;5074024;28;20302;-67
2022/05/24 04:37:00;;;;;;;9.40;2.60;;;12.60;92.40;;;;;;5073412;28;20258;-67
2022/05/24 04:39:26;;;;;;;7.07;2.43;;;12.60;92.70;;;;;;5073483;28;20600;-66
2022/05/24 04:44:35;;;;;;;5.43;2.27;;;12.70;86.00;;;;;;5073708;28;20174;-66
2022/05/24 04:47:07;;;;;;;4.57;2.53;;;12.70;90.40;;;;;;5072876;28;20180;-66
2022/05/24 04:49:33;;;;;;;5.67;2.17;;;12.60;92.50;;;;;;5073158;28;20168;-66
2022/05/24 04:51:58;;;;;;;8.43;2.90;;;12.70;91.50;;;;;;5072514;28;20166;-67
2022/05/24 04:54:24;;;;;;;7.57;2.47;;;12.70;92.00;;;;;;5073107;28;20259;-66
2022/05/24 04:56:50;;;;;;;6.67;2.80;;;12.80;91.10;;;;;;5073414;28;20297;-67
2022/05/24 04:59:16;;;;;;;7.83;2.60;;;12.90;88.10;;;;;;5072870;28;20771;-66
2022/05/24 05:01:42;;;;;;;6.00;2.90;;;13.00;90.40;;;;;;5072629;28;20220;-66
2022/05/24 05:04:08;;;;;;;8.53;2.90;;;13.20;82.20;;;;;;5072466;28;20253;-66
2022/05/24 05:06:34;;;;;;;9.27;2.80;;;13.30;76.50;;;;;;5073006;28;20173;-66
2022/05/24 05:08:59;;;;;;;4.53;2.43;;;13.30;68.30;;;;;;5071943;28;20563;-66
2022/05/24 05:11:25;;;;;;;6.67;2.50;;;13.50;62.90;;;;;;5072199;28;20263;-67
2022/05/24 05:13:51;;;;;;;9.97;2.83;;;13.60;56.70;;;;;;5072986;28;20216;-66
2022/05/24 05:16:17;;;;;;;6.33;2.53;;;13.80;53.60;;;;;;5072125;28;20187;-66
2022/05/24 05:18:43;;;;;;;7.80;2.47;;;14.30;40.90;;;;;;5072556;28;20212;-66
2022/05/24 05:21:09;;;;;;;4.73;2.40;;;14.30;23.50;;;;;;5072465;28;20616;-67
2022/05/24 05:23:34;;;;;;;5.80;2.27;;;14.50;20.10;;;;;;5071389;28;20202;-66
2022/05/24 05:26:00;;;;;;;6.97;1.90;;;14.80;14.10;;;;;;5071907;28;20616;-67
2022/05/24 05:28:26;;;;;;;5.63;2.13;;;15.10;6.60;;;;;;5072588;28;20168;-67
2022/05/24 05:33:36;;;;;;;3.70;2.20;;;15.40;1.00;;;;;;5072324;28;20179;-67
2022/05/24 05:36:02;;;;;;;6.40;2.00;;;15.10;1.00;;;;;;5071372;28;20217;-69
2022/05/24 05:38:28;;;;;;;4.90;1.87;;;14.90;1.00;;;;;;5071419;28;20578;-67
2022/05/24 05:40:54;;;;;;;8.73;2.37;;;14.80;1.00;;;;;;5071725;28;20165;-67
2022/05/24 05:43:21;;;;;;;7.60;2.20;;;14.70;1.00;;;;;;5072563;28;20184;-68
2022/05/24 05:45:54;;;;;;;3.47;1.70;;;14.50;8.80;;;;;;5070960;28;20164;-68
2022/05/24 05:48:20;;;;;;;6.63;2.17;;;14.20;1.00;;;;;;5071830;28;20175;-67
2022/05/24 05:50:47;;;;;;;9.70;2.00;;;14.20;10.70;;;;;;5071229;28;20611;-67
2022/05/24 05:53:16;;;;;;;5.33;1.90;;;14.20;15.60;;;;;;5071410;28;20211;-66
2022/05/24 05:55:42;;;;;;;7.03;2.27;;;14.90;1.00;;;;;;5072099;28;20164;-66
2022/05/24 05:58:08;;;;;;;3.83;1.77;;;15.70;1.00;;;;;;5071745;28;20208;-66
2022/05/24 06:00:35;;;;;;;5.17;2.03;;;16.40;1.00;;;;;;5071216;28;20176;-67
2022/05/24 06:03:01;;;;;;;3.20;1.50;;;16.90;1.00;;;;;;5071241;28;20169;-68
2022/05/24 06:05:27;;;;;;;6.83;2.13;;;17.00;1.00;;;;;;5071674;28;20231;-68
2022/05/24 06:07:54;;;;;;;6.70;1.53;;;17.10;1.00;;;;;;5071440;28;20631;-67
2022/05/24 06:10:20;;;;;;;4.90;1.87;;;16.80;1.00;;;;;;5071297;28;20267;-66
2022/05/24 06:12:46;;;;;;;5.50;1.80;;;16.60;1.00;;;;;;5071416;28;20659;-66
2022/05/24 06:15:12;;;;;;;5.10;1.50;;;16.20;1.00;;;;;;5071275;28;20219;-67
2022/05/24 06:17:45;;;;;;;5.40;1.80;;;15.70;1.00;;;;;;5069903;28;20239;-69
2022/05/24 06:20:12;;;;;;;5.20;1.57;;;15.40;1.00;;;;;;5051785;28;20193;-67
2022/05/24 06:22:37;;;;;;;3.53;1.33;;;15.00;1.00;;;;;;5052563;28;20263;-66
2022/05/24 06:25:04;;;;;;;4.10;1.63;;;15.00;1.00;;;;;;5067385;28;20719;-65
2022/05/24 06:27:30;;;;;;;2.83;1.70;;;15.20;1.00;;;;;;5070027;28;20180;-66
2022/05/24 06:29:55;;;;;;;5.10;2.10;;;15.40;1.00;;;;;;5069582;28;20551;-67
2022/05/24 06:32:21;;;;;;;4.70;2.17;;;15.60;1.00;;;;;;5070760;28;20196;-67
2022/05/24 06:34:51;;;;;;;8.27;2.30;;;16.00;1.00;;;;;;5072352;28;20185;-66
2022/05/24 06:37:18;;;;;;;5.63;1.80;;;16.80;1.00;;;;;;5088897;28;20837;-66
2022/05/24 06:39:45;;;;;;;5.50;2.50;;;16.60;1.00;;;;;;5078165;28;20168;-64
2022/05/24 06:42:10;;;;;;;5.20;2.17;;;16.50;1.00;;;;;;5088810;28;20238;-66
2022/05/24 06:44:36;;;;;;;4.20;1.63;;;16.30;1.00;;;;;;5083151;28;20710;-65
2022/05/24 06:47:02;;;;;;;3.20;1.67;;;16.00;1.00;;;;;;5082021;28;20195;-67
2022/05/24 06:49:28;;;;;;;2.67;2.17;;;16.00;1.00;;;;;;5090177;28;20285;-65
2022/05/24 06:51:57;;;;;;;4.20;1.93;;;15.50;1.00;;;;;;5077560;28;20180;-67
2022/05/24 06:54:23;;;;;;;2.20;1.97;;;15.90;1.00;;;;;;5087395;28;20177;-67
2022/05/24 06:56:49;;;;;;;4.20;2.00;;;16.40;1.00;;;;;;5083649;28;20175;-67
2022/05/24 07:04:42;;;;;;;3.47;2.10;;;17.70;1.00;;;;;;5083116;28;20275;-68
2022/05/24 07:07:08;;;;;;;7.30;2.63;;;18.10;99.90;;;;;;5086440;28;20259;-67
2022/05/24 07:09:34;;;;;;;3.27;2.10;;;17.90;99.00;;;;;;5077290;28;20568;-67
2022/05/24 07:12:01;;;;;;;3.03;2.43;;;17.20;1.00;;;;;;5090272;28;20556;-67
2022/05/24 07:14:27;;;;;;;4.03;2.30;;;17.20;1.00;;;;;;5081304;28;20168;-67
2022/05/24 07:16:52;;;;;;;3.20;2.10;;;16.90;1.00;;;;;;5083389;28;20654;-66
2022/05/24 07:19:19;;;;;;;4.20;2.40;;;16.60;1.00;;;;;;5087338;28;20210;-67
2022/05/24 07:21:44;;;;;;;5.93;2.40;;;16.40;1.00;;;;;;5063280;28;20173;-67
2022/05/24 07:24:10;;;;;;;4.57;2.40;;;16.10;1.00;;;;;;5055583;28;20702;-70
2022/05/24 07:26:36;;;;;;;3.73;2.40;;;16.20;1.00;;;;;;5059209;28;20173;-67
2022/05/24 07:29:02;;;;;;;3.97;2.07;;;16.00;1.00;;;;;;5055718;28;20233;-66
2022/05/24 07:31:28;;;;;;;3.53;2.10;;;16.10;1.00;;;;;;5081809;28;20233;-66
2022/05/24 07:33:53;;;;;;;3.40;2.20;;;16.20;1.00;;;;;;5072186;28;20193;-66
2022/05/24 07:36:19;;;;;;;4.83;2.20;;;16.30;1.00;;;;;;5072111;28;20177;-68
2022/05/24 07:38:44;;;;;;;2.90;1.90;;;16.80;1.00;;;;;;5062931;28;20278;-65
2022/05/24 07:46:38;;;;;;;1.93;1.70;;;17.70;99.90;;;;;;5085039;28;20715;-67
2022/05/24 07:49:05;;;;;;;3.47;2.13;;;18.20;24.40;;;;;;5069912;28;20284;-68
2022/05/24 07:51:30;;;;;;;2.53;1.60;;;19.10;1.00;;;;;;5081886;28;20164;-68
2022/05/24 07:53:56;;;;;;;3.13;1.60;;;20.10;1.00;;;;;;5088708;28;20268;-67
2022/05/24 07:56:21;;;;;;;2.90;1.65;;;21.10;1.00;;;;;;5071302;28;20176;-67
2022/05/24 07:58:47;;;;;;;3.30;1.50;;;22.10;99.90;;;;;;5082036;28;20700;-70
2022/05/24 08:01:16;;;;;;;3.90;2.10;;;22.70;1.00;;;;;;5088607;28;20211;-68
2022/05/24 08:03:42;;;;;;;2.03;1.80;;;23.10;1.00;;;;;;5074734;28;20200;-65
2022/05/24 08:06:10;;;;;;;4.40;1.90;;;22.10;1.00;;;;;;5085367;28;20638;-68
2022/05/24 08:08:36;;;;;;;4.13;1.70;;;22.70;1.00;;;;;;5064993;28;20176;-68
2022/05/24 08:11:02;;;;;;;2.03;1.63;;;21.90;1.00;;;;;;5060773;28;20180;-69
2022/05/24 08:13:28;;;;;;;3.25;1.58;;;22.70;1.00;;;;;;5088661;28;20299;-67
2022/05/24 08:15:55;;;;;;;4.85;1.60;;;24.90;99.90;;;;;;5066548;28;20251;-68
2022/05/24 08:18:22;;;;;;;3.28;1.85;;;25.70;99.90;;;;;;5064494;28;20291;-68
2022/05/24 08:20:48;;;;;;;2.75;1.60;;;24.70;99.90;;;;;;5069169;28;20172;-68
2022/05/24 08:23:14;;;;;;;4.10;1.30;;;24.00;99.90;;;;;;5082798;28;20198;-68
2022/05/24 08:25:40;;;;;;;3.88;1.70;;;24.00;99.90;;;;;;5078096;28;20183;-68
2022/05/24 08:28:07;;;;;;;1.95;1.23;;;24.40;99.90;;;;;;5072279;28;20267;-68
2022/05/24 08:30:35;;;;;;;1.95;1.17;;;23.20;99.90;;;;;;5080411;28;20289;-67
2022/05/24 08:33:04;;;;;;;5.10;1.50;;;22.80;99.90;;;;;;5073066;28;20219;-67
2022/05/24 08:35:33;;;;;;;5.47;1.67;;;21.90;1.00;;;;;;5055181;28;20252;-67
2022/05/24 08:38:04;;;;;;;2.90;1.55;;;20.60;1.00;;;;;;5064968;28;20207;-67
2022/05/24 08:40:30;;;;;;;4.35;1.70;;;19.10;1.00;;;;;;5068306;28;20172;-66
2022/05/24 08:43:14;;;;;;;3.13;1.30;;;19.20;1.00;;;;;;5076586;28;20189;-66
2022/05/24 08:49:15;;;;;;;1.40;1.30;;;19.50;1.00;;;;;;5062317;28;20200;-68
2022/05/24 08:51:44;;;;;;;2.70;1.48;;;20.00;1.00;;;;;;5063333;28;20187;-64
2022/05/24 08:54:14;;;;;;;2.65;1.50;;;19.70;99.90;;;;;;5061076;28;20205;-67
2022/05/24 08:56:48;;;;;;;2.88;1.63;;;19.90;99.90;;;;;;5063479;28;20259;-67
2022/05/24 08:59:29;;;;;;;4.47;1.98;;;19.20;99.90;;;;;;5066037;28;20219;-66
2022/05/24 09:01:56;;;;;;;2.75;2.10;;;19.20;1.00;;;;;;5066249;28;20640;-68
2022/05/24 09:04:22;;;;;;;1.90;1.80;;;19.90;1.00;;;;;;5070971;28;20279;-67
2022/05/24 09:06:51;;;;;;;3.25;1.60;;;20.90;99.90;;;;;;5065766;28;20176;-67
2022/05/24 09:09:44;;;;;;;2.83;1.60;;;21.40;1.00;;;;;;5081697;28;20171;-67
2022/05/24 09:12:17;;;;;;;3.15;1.50;;;21.30;1.00;;;;;;5065116;28;20176;-66
2022/05/24 09:15:25;;;;;;;2.15;1.52;;;20.90;1.00;;;;;;5075778;28;20174;-67
2022/05/24 09:18:26;;;;;;;1.42;1.20;;;19.90;99.90;;;;;;5072453;28;20196;-65
2022/05/24 09:20:52;;;;;;;1.88;1.30;;;19.80;1.00;;;;;;5056190;28;20192;-67
2022/05/24 09:23:41;;;;;;;1.95;1.30;;;20.30;1.00;;;;;;5057104;28;20199;-66
2022/05/24 09:26:10;;;;;;;2.63;1.30;;;21.10;99.90;;;;;;5053495;28;20180;-67
2022/05/24 09:28:42;;;;;;;1.50;1.10;;;21.60;1.00;;;;;;5067791;28;20172;-64
2022/05/24 09:31:38;;;;;;;4.53;1.23;;;22.20;1.00;;;;;;5067666;28;20176;-65
2022/05/24 09:34:08;;;;;;;1.75;1.00;;;22.20;1.00;;;;;;5042363;28;20212;-65
2022/05/24 09:36:40;;;;;;;1.67;1.08;;;23.30;99.90;;;;;;5048649;28;20262;-67
2022/05/24 09:39:27;;;;;;;2.60;0.98;;;22.70;99.90;;;;;;5046653;28;20235;-68
2022/05/24 09:41:56;;;;;;;4.13;1.20;;;23.80;1.00;;;;;;4995545;28;20328;-68
2022/05/24 09:44:22;;;;;;;6.40;2.17;;;24.80;99.90;;;;;;5058813;28;20214;-67
2022/05/24 09:46:48;;;;;;;3.53;1.40;;;24.70;99.90;;;;;;5056852;28;20664;-67
2022/05/24 09:49:23;;;;;;;2.38;1.20;;;24.10;99.90;;;;;;5049450;28;20173;-65
2022/05/24 09:51:51;;;;;;;3.22;1.20;;;22.30;99.90;;;;;;5055484;28;20212;-65
2022/05/24 09:54:24;;;;;;;2.75;1.10;;;21.00;1.00;;;;;;5055131;28;20639;-64
2022/05/24 09:57:09;;;;;;;1.63;1.00;;;20.10;99.90;;;;;;5040284;28;20193;-66
2022/05/24 09:59:39;;;;;;;1.08;1.00;;;20.70;60.40;;;;;;5027484;28;20185;-66
2022/05/24 10:02:28;;;;;;;2.15;0.98;;;21.80;1.00;;;;;;5036555;28;20217;-68
2022/05/24 10:04:54;;;;;;;2.47;0.98;;;22.80;99.90;;;;;;5023409;28;20189;-66
2022/05/24 10:07:32;;;;;;;1.67;1.15;;;23.20;99.90;;;;;;5034608;28;20182;-68
2022/05/24 10:10:20;;;;;;;3.88;1.40;;;23.30;99.90;;;;;;5048745;28;20180;-66
2022/05/24 10:13:05;;;;;;;3.28;1.42;;;22.50;99.90;;;;;;5068149;28;20280;-64
2022/05/24 10:15:38;;;;;;;1.20;1.10;;;22.00;99.90;;;;;;5060586;28;20181;-65
2022/05/24 10:18:12;;;;;;;3.85;1.40;;;21.90;99.90;;;;;;5055315;28;20251;-65
2022/05/24 10:21:01;;;;;;;4.18;1.33;;;20.70;1.00;;;;;;5073434;28;20175;-65
2022/05/24 10:24:01;;;;;;;2.03;1.20;;;20.00;1.00;;;;;;5078504;28;20169;-65
2022/05/24 10:26:34;;;;;;;4.43;1.45;;;19.90;99.90;;;;;;5058079;28;20186;-66
2022/05/24 10:29:17;;;;;;;0.85;0.82;;;20.60;99.90;;;;;;5069656;28;20183;-67
2022/05/24 10:31:49;;;;;;;1.30;0.50;;;20.70;1.00;;;;;;5086670;28;20211;-67
2022/05/24 10:40:10;;;;;;;0.63;0.60;;;22.40;99.90;;;;;;5066405;28;20936;-66
2022/05/24 10:42:56;;;;;;;3.30;1.15;;;22.30;99.90;;;;;;5071712;28;20172;-67
2022/05/24 10:45:49;;;;;;;3.55;1.45;;;22.70;99.90;;;;;;5073146;28;20185;-66
2022/05/24 10:48:16;;;;;;;1.83;0.90;;;22.70;99.90;;;;;;5065068;28;20172;-68
2022/05/24 10:50:48;;;;;;;1.73;1.15;;;22.60;99.90;;;;;;5072760;28;20173;-65
2022/05/24 10:53:25;;;;;;;1.70;1.10;;;23.10;99.90;;;;;;5077597;28;20184;-65
2022/05/24 10:56:08;;;;;;;0.85;0.80;;;23.10;99.90;;;;;;5081927;28;20238;-66
2022/05/24 10:58:38;;;;;;;3.05;1.10;;;23.60;99.90;;;;;;5072589;28;20199;-68
2022/05/24 11:01:22;;;;;;;3.47;1.30;;;22.70;99.90;;;;;;5065844;28;20259;-64
2022/05/24 11:03:52;;;;;;;3.90;1.50;;;22.50;99.90;;;;;;5089504;28;20196;-67
2022/05/24 11:06:40;;;;;;;2.10;1.40;;;21.40;1.00;;;;;;5066792;28;20250;-67
2022/05/24 11:09:17;;;;;;;1.30;1.02;;;21.20;1.00;;;;;;5066823;28;20177;-66
2022/05/24 11:12:07;;;;;;;2.55;1.05;;;21.80;1.00;;;;;;5082324;28;20259;-68
2022/05/24 11:14:39;;;;;;;1.20;1.10;;;22.40;99.90;;;;;;5056074;28;20180;-66
2022/05/24 11:17:08;;;;;;;4.22;0.90;;;22.50;99.90;;;;;;5064905;28;20184;-67
2022/05/24 11:19:40;;;;;;;1.80;0.90;;;23.00;99.90;;;;;;5070850;28;20263;-67
2022/05/24 11:22:27;;;;;;;3.88;1.38;;;21.80;99.90;;;;;;5066016;28;20186;-65
2022/05/24 11:25:13;;;;;;;4.18;1.23;;;22.10;99.90;;;;;;5072253;28;20629;-67
2022/05/24 11:27:44;;;;;;;1.75;1.25;;;21.60;1.00;;;;;;5055921;28;20656;-66
2022/05/24 11:30:28;;;;;;;4.13;1.17;;;21.70;1.00;;;;;;5086432;28;20642;-66
2022/05/24 11:33:05;;;;;;;1.98;1.27;;;21.30;1.00;;;;;;5082056;28;20650;-66
2022/05/24 11:35:38;;;;;;;2.47;1.10;;;20.10;1.00;;;;;;5061422;28;20230;-66
2022/05/24 11:38:21;;;;;;;1.63;1.13;;;18.60;99.90;;;;;;5063478;28;20212;-67
2022/05/24 11:41:19;;;;;;;2.00;1.00;;;17.30;1.00;;;;;;5066678;28;20168;-66
2022/05/24 11:43:45;;;;;;;1.07;0.90;;;16.60;1.00;;;;;;5059853;28;20666;-66
2022/05/24 11:46:35;;;;;;;2.60;1.10;;;17.10;1.00;;;;;;5069569;28;20172;-68
2022/05/24 11:49:04;;;;;;;1.40;1.30;;;17.60;1.00;;;;;;5066386;28;20177;-65
2022/05/24 11:51:48;;;;;;;1.42;1.17;;;18.40;1.00;;;;;;5062507;28;20264;-65
2022/05/24 11:54:21;;;;;;;2.70;1.38;;;19.20;1.00;;;;;;5065884;28;20191;-64
2022/05/24 11:57:02;;;;;;;2.13;1.15;;;19.30;1.00;;;;;;5073944;28;20168;-64
2022/05/24 11:59:40;;;;;;;2.47;2.15;;;19.50;70.20;;;;;;5079278;28;20212;-65
2022/05/24 12:07:54;;;;;;;5.63;1.55;;;19.60;1.00;;;;;;5060625;28;20361;-65
2022/05/24 12:08:29;;;;;;;1.65;1.08;;;19.40;1.00;;;;;;5057409;28;20560;-66
2022/05/24 12:11:04;;;;;;;1.52;1.40;;;19.30;1.00;;;;;;5055030;28;20200;-66
2022/05/24 12:13:46;;;;;;;1.95;1.13;;;19.00;20.80;;;;;;5060474;28;20659;-67
2022/05/24 12:16:53;;;;;;;3.38;1.30;;;18.90;1.00;;;;;;5065226;28;20169;-66
2022/05/24 12:19:42;;;;;;;3.27;1.30;;;18.40;99.90;;;;;;5027335;28;20213;-68
2022/05/24 12:22:15;;;;;;;2.37;1.33;;;18.10;1.00;;;;;;5030028;28;20182;-66
2022/05/24 12:24:41;;;;;;;0.97;0.80;;;17.20;1.00;;;;;;5059414;28;20191;-67
2022/05/24 12:27:27;;;;;;;2.43;1.30;;;16.50;1.00;;;;;;5067518;28;20180;-67
2022/05/24 12:30:14;;;;;;;2.03;1.20;;;15.80;1.00;;;;;;5088558;28;20691;-66
2022/05/24 12:32:41;;;;;;;0.90;0.90;;;15.30;1.00;;;;;;5076354;28;20180;-67
2022/05/24 12:35:10;;;;;;;3.10;1.43;;;15.30;1.00;;;;;;5084811;28;20168;-68
2022/05/24 12:37:36;;;;;;;1.67;1.27;;;15.60;1.00;;;;;;5075749;28;20200;-65
2022/05/24 12:40:17;;;;;;;1.47;1.33;;;16.00;1.00;;;;;;5087177;28;20200;-67
2022/05/24 12:42:44;;;;;;;2.13;1.77;;;16.40;1.00;;;;;;5051571;28;20212;-76
2022/05/24 12:45:13;;;;;;;1.60;1.50;;;16.60;1.00;;;;;;5053092;28;20637;-68
2022/05/24 12:47:40;;;;;;;1.60;1.47;;;16.80;1.00;;;;;;5057569;28;20490;-65
2022/05/24 12:50:06;;;;;;;2.17;2.00;;;17.20;1.00;;;;;;5077524;28;20833;-66
2022/05/24 12:52:38;;;;;;;2.30;1.43;;;17.50;1.00;;;;;;5071571;28;20255;-69
2022/05/24 12:55:07;;;;;;;1.63;1.53;;;17.50;1.00;;;;;;5065979;28;20181;-67
2022/05/24 12:57:47;;;;;;;4.40;1.60;;;17.50;1.00;;;;;;5055584;28;20227;-69
2022/05/24 13:00:21;;;;;;;1.43;1.30;;;17.30;1.00;;;;;;5065238;28;20224;-69
2022/05/24 13:02:52;;;;;;;1.80;1.70;;;17.40;1.00;;;;;;5064589;28;20216;-68
2022/05/24 13:05:24;;;;;;;1.83;1.30;;;17.50;1.00;;;;;;5074997;28;20263;-67
2022/05/24 13:07:50;;;;;;;2.33;1.40;;;17.40;1.00;;;;;;5072783;28;20192;-69
2022/05/24 13:10:28;;;;;;;1.50;1.40;;;17.20;1.00;;;;;;5079128;28;20171;-68
2022/05/24 13:12:56;;;;;;;2.90;1.20;;;17.00;1.00;;;;;;5070257;28;20176;-69
2022/05/24 13:15:42;;;;;;;2.63;1.10;;;17.00;1.00;;;;;;5085982;28;20424;-68
2022/05/24 13:18:17;;;;;;;2.97;2.57;;;16.70;1.00;;;;;;5065867;28;20350;-65
2022/05/24 13:20:54;;;;;;;1.03;1.00;;;16.10;1.00;;;;;;5070367;28;20258;-67
2022/05/24 13:23:23;;;;;;;1.10;1.00;;;15.40;1.00;;;;;;5062761;28;20184;-66
2022/05/24 13:25:57;;;;;;;1.20;0.97;;;15.00;1.00;;;;;;5060819;28;20258;-69
2022/05/24 13:28:34;;;;;;;1.00;1.00;;;14.80;1.00;;;;;;5059212;28;20675;-67
2022/05/24 13:33:55;;;;;;;2.53;1.23;;;14.70;1.00;;;;;;5063206;28;20679;-67
2022/05/24 13:36:29;;;;;;;1.93;1.30;;;14.60;1.00;;;;;;5065032;28;20307;-67
2022/05/24 13:39:04;;;;;;;2.30;1.30;;;14.60;1.00;;;;;;5072715;28;20220;-66
2022/05/24 13:41:37;;;;;;;4.63;1.50;;;15.00;1.00;;;;;;5062144;28;20189;-67
2022/05/24 13:44:08;;;;;;;2.30;1.63;;;15.50;1.00;;;;;;5060605;28;20200;-65
2022/05/24 13:47:11;;;;;;;0.80;0.80;;;16.10;1.00;;;;;;5071366;28;20188;-65
2022/05/24 13:49:43;;;;;;;1.10;1.10;;;16.50;1.00;;;;;;5057623;28;20185;-65
2022/05/24 13:52:17;;;;;;;1.37;1.00;;;17.10;1.00;;;;;;5057125;28;20609;-67
2022/05/24 13:54:43;;;;;;;1.80;1.20;;;17.30;1.00;;;;;;5056692;28;20183;-67
2022/05/24 13:57:30;;;;;;;1.00;0.70;;;17.60;99.90;;;;;;5057258;28;20188;-66